sensor_id;sensor_type;location;lat;lon;timestamp;temperature;humidity
3300;DHT22;1662;49.310;8.134;2022-09-09T00:04:15;17.40;99.90
3300;DHT22;1662;49.310;8.134;2022-09-09T00:06:58;17.30;99.90
3300;DHT22;1662;49.310;8.134;2022-09-09T00:09:29;17.30;99.90
3300;DHT22;1662;49.310;8.134;2022-09-09T00:12:02;17.30;99.90
3300;DHT22;1662;49.310;8.134;2022-09-09T00:14:45;17.30;99.90
3300;DHT22;1662;49.310;8.134;2022-09-09T00:20:26;17.40;99.90
3300;DHT22;1662;49.310;8.134;2022-09-09T00:23:27;17.40;99.90
3300;DHT22;1662;49.310;8.134;2022-09-09T00:26:14;17.40;99.90
3300;DHT22;1662;49.310;8.134;2022-09-09T00:28:51;17.40;99.90
3300;DHT22;1662;49.310;8.134;2022-09-09T00:31:26;17.50;99.90
3300;DHT22;1662;49.310;8.134;2022-09-09T00:33:56;17.50;99.90
3300;DHT22;1662;49.310;8.134;2022-09-09T00:36:26;17.50;99.90
3300;DHT22;1662;49.310;8.134;2022-09-09T00:39:01;17.50;99.90
3300;DHT22;1662;49.310;8.134;2022-09-09T00:42:16;17.60;99.90
3300;DHT22;1662;49.310;8.134;2022-09-09T00:44:36;17.50;99.90
3300;DHT22;1662;49.310;8.134;2022-09-09T01:01:25;17.50;99.90
3300;DHT22;1662;49.310;8.134;2022-09-09T01:03:55;17.50;99.90
3300;DHT22;1662;49.310;8.134;2022-09-09T01:06:35;17.50;99.90
3300;DHT22;1662;49.310;8.134;2022-09-09T01:09:13;17.50;99.90
3300;DHT22;1662;49.310;8.134;2022-09-09T01:19:55;17.50;99.90
3300;DHT22;1662;49.310;8.134;2022-09-09T01:28:51;17.80;99.90
3300;DHT22;1662;49.310;8.134;2022-09-09T01:31:21;17.80;99.90
3300;DHT22;1662;49.310;8.134;2022-09-09T01:33:48;17.90;99.90
3300;DHT22;1662;49.310;8.134;2022-09-09T01:36:28;18.00;99.90
3300;DHT22;1662;49.310;8.134;2022-09-09T01:38:55;18.10;99.90
3300;DHT22;1662;49.310;8.134;2022-09-09T01:41:21;18.00;99.90
3300;DHT22;1662;49.310;8.134;2022-09-09T01:43:47;18.00;99.90
3300;DHT22;1662;49.310;8.134;2022-09-09T01:46:13;18.00;99.90
3300;DHT22;1662;49.310;8.134;2022-09-09T01:48:40;18.00;99.90
3300;DHT22;1662;49.310;8.134;2022-09-09T01:51:07;18.00;99.90
3300;DHT22;1662;49.310;8.134;2022-09-09T01:53:35;17.80;99.90
3300;DHT22;1662;49.310;8.134;2022-09-09T01:56:18;17.70;99.90
3300;DHT22;1662;49.310;8.134;2022-09-09T02:04:28;17.60;99.90
3300;DHT22;1662;49.310;8.134;2022-09-09T02:06:58;17.60;99.90
3300;DHT22;1662;49.310;8.134;2022-09-09T02:09:26;17.60;99.90
3300;DHT22;1662;49.310;8.134;2022-09-09T02:12:05;17.60;99.90
3300;DHT22;1662;49.310;8.134;2022-09-09T02:14:36;17.50;99.90
3300;DHT22;1662;49.310;8.134;2022-09-09T02:17:10;17.40;99.90
3300;DHT22;1662;49.310;8.134;2022-09-09T02:19:40;17.40;99.90
3300;DHT22;1662;49.310;8.134;2022-09-09T02:22:10;17.40;99.90
3300;DHT22;1662;49.310;8.134;2022-09-09T02:24:37;17.40;99.90
3300;DHT22;1662;49.310;8.134;2022-09-09T02:27:06;17.40;99.90
3300;DHT22;1662;49.310;8.134;2022-09-09T02:29:40;17.40;99.90
3300;DHT22;1662;49.310;8.134;2022-09-09T02:32:23;17.40;99.90
3300;DHT22;1662;49.310;8.134;2022-09-09T02:35:02;17.30;99.90
3300;DHT22;1662;49.310;8.134;2022-09-09T02:37:34;17.30;99.90
3300;DHT22;1662;49.310;8.134;2022-09-09T02:40:12;17.30;99.90
3300;DHT22;1662;49.310;8.134;2022-09-09T02:42:40;17.20;99.90
3300;DHT22;1662;49.310;8.134;2022-09-09T02:45:07;17.10;99.90
3300;DHT22;1662;49.310;8.134;2022-09-09T02:50:15;17.00;99.90
3300;DHT22;1662;49.310;8.134;2022-09-09T02:52:59;17.00;99.90
3300;DHT22;1662;49.310;8.134;2022-09-09T02:55:38;16.80;99.90
3300;DHT22;1662;49.310;8.134;2022-09-09T02:58:07;16.70;99.90
3300;DHT22;1662;49.310;8.134;2022-09-09T03:00:34;16.60;99.90
3300;DHT22;1662;49.310;8.134;2022-09-09T03:03:05;16.60;99.90
3300;DHT22;1662;49.310;8.134;2022-09-09T03:05:30;16.60;99.90
3300;DHT22;1662;49.310;8.134;2022-09-09T03:07:57;16.50;99.90
3300;DHT22;1662;49.310;8.134;2022-09-09T03:10:23;16.40;99.90
3300;DHT22;1662;49.310;8.134;2022-09-09T03:12:48;16.40;99.90
3300;DHT22;1662;49.310;8.134;2022-09-09T03:15:16;16.30;99.90
3300;DHT22;1662;49.310;8.134;2022-09-09T03:17:41;16.40;99.90
3300;DHT22;1662;49.310;8.134;2022-09-09T03:20:08;16.30;99.90
3300;DHT22;1662;49.310;8.134;2022-09-09T03:22:34;16.40;99.90
3300;DHT22;1662;49.310;8.134;2022-09-09T03:25:00;16.40;99.90
3300;DHT22;1662;49.310;8.134;2022-09-09T03:27:27;16.30;99.90
3300;DHT22;1662;49.310;8.134;2022-09-09T03:29:52;16.30;99.90
3300;DHT22;1662;49.310;8.134;2022-09-09T03:32:19;16.20;99.90
3300;DHT22;1662;49.310;8.134;2022-09-09T03:34:44;16.30;99.90
3300;DHT22;1662;49.310;8.134;2022-09-09T03:37:11;16.40;99.90
3300;DHT22;1662;49.310;8.134;2022-09-09T03:39:36;16.40;99.90
3300;DHT22;1662;49.310;8.134;2022-09-09T03:42:02;16.30;99.90
3300;DHT22;1662;49.310;8.134;2022-09-09T03:44:31;16.20;99.90
3300;DHT22;1662;49.310;8.134;2022-09-09T03:46:59;16.10;99.90
3300;DHT22;1662;49.310;8.134;2022-09-09T03:49:26;16.00;99.90
3300;DHT22;1662;49.310;8.134;2022-09-09T03:51:57;15.80;99.90
3300;DHT22;1662;49.310;8.134;2022-09-09T03:54:24;15.80;99.90
3300;DHT22;1662;49.310;8.134;2022-09-09T03:56:50;15.90;99.90
3300;DHT22;1662;49.310;8.134;2022-09-09T03:59:16;15.80;99.90
3300;DHT22;1662;49.310;8.134;2022-09-09T04:01:41;15.90;99.90
3300;DHT22;1662;49.310;8.134;2022-09-09T04:04:07;15.80;99.90
3300;DHT22;1662;49.310;8.134;2022-09-09T04:06:33;15.80;99.90
3300;DHT22;1662;49.310;8.134;2022-09-09T04:08:58;15.80;99.90
3300;DHT22;1662;49.310;8.134;2022-09-09T04:11:24;15.80;99.90
3300;DHT22;1662;49.310;8.134;2022-09-09T04:13:52;15.90;99.90
3300;DHT22;1662;49.310;8.134;2022-09-09T04:16:18;15.90;99.90
3300;DHT22;1662;49.310;8.134;2022-09-09T04:18:47;16.00;99.90
3300;DHT22;1662;49.310;8.134;2022-09-09T04:21:16;16.00;99.90
3300;DHT22;1662;49.310;8.134;2022-09-09T04:23:42;16.10;99.90
3300;DHT22;1662;49.310;8.134;2022-09-09T04:26:08;16.10;99.90
3300;DHT22;1662;49.310;8.134;2022-09-09T04:28:35;16.10;99.90
3300;DHT22;1662;49.310;8.134;2022-09-09T04:31:09;16.20;99.90
3300;DHT22;1662;49.310;8.134;2022-09-09T04:33:36;16.10;99.90
3300;DHT22;1662;49.310;8.134;2022-09-09T04:36:02;16.10;99.90
3300;DHT22;1662;49.310;8.134;2022-09-09T04:38:28;16.00;99.90
3300;DHT22;1662;49.310;8.134;2022-09-09T04:40:54;16.00;99.90
3300;DHT22;1662;49.310;8.134;2022-09-09T04:43:22;15.90;99.90
3300;DHT22;1662;49.310;8.134;2022-09-09T04:45:51;15.90;99.90
3300;DHT22;1662;49.310;8.134;2022-09-09T04:48:18;15.90;99.90
3300;DHT22;1662;49.310;8.134;2022-09-09T04:50:53;15.90;99.90
3300;DHT22;1662;49.310;8.134;2022-09-09T04:53:18;16.00;99.90
3300;DHT22;1662;49.310;8.134;2022-09-09T04:55:44;16.00;99.90
3300;DHT22;1662;49.310;8.134;2022-09-09T04:58:09;16.00;99.90
3300;DHT22;1662;49.310;8.134;2022-09-09T05:00:35;16.10;99.90
3300;DHT22;1662;49.310;8.134;2022-09-09T05:03:05;16.10;99.90
3300;DHT22;1662;49.310;8.134;2022-09-09T05:05:32;16.10;99.90
3300;DHT22;1662;49.310;8.134;2022-09-09T05:08:06;16.10;99.90
3300;DHT22;1662;49.310;8.134;2022-09-09T05:10:37;16.00;99.90
3300;DHT22;1662;49.310;8.134;2022-09-09T05:13:03;16.00;99.90
3300;DHT22;1662;49.310;8.134;2022-09-09T05:15:31;16.00;99.90
3300;DHT22;1662;49.310;8.134;2022-09-09T05:18:01;16.00;99.90
3300;DHT22;1662;49.310;8.134;2022-09-09T05:20:28;16.00;99.90
3300;DHT22;1662;49.310;8.134;2022-09-09T05:22:54;16.00;99.90
3300;DHT22;1662;49.310;8.134;2022-09-09T05:25:20;15.90;99.90
3300;DHT22;1662;49.310;8.134;2022-09-09T05:27:47;15.90;99.90
3300;DHT22;1662;49.310;8.134;2022-09-09T05:30:13;15.80;99.90
3300;DHT22;1662;49.310;8.134;2022-09-09T05:32:38;15.80;99.90
3300;DHT22;1662;49.310;8.134;2022-09-09T05:35:04;15.80;99.90
3300;DHT22;1662;49.310;8.134;2022-09-09T05:37:31;15.80;99.90
3300;DHT22;1662;49.310;8.134;2022-09-09T05:39:56;15.80;99.90
3300;DHT22;1662;49.310;8.134;2022-09-09T05:42:28;15.80;99.90
3300;DHT22;1662;49.310;8.134;2022-09-09T05:44:54;15.80;99.90
3300;DHT22;1662;49.310;8.134;2022-09-09T05:47:20;15.80;99.90
3300;DHT22;1662;49.310;8.134;2022-09-09T05:49:45;15.80;99.90
3300;DHT22;1662;49.310;8.134;2022-09-09T05:52:11;15.90;99.90
3300;DHT22;1662;49.310;8.134;2022-09-09T05:54:36;15.90;99.90
3300;DHT22;1662;49.310;8.134;2022-09-09T05:57:03;15.90;99.90
3300;DHT22;1662;49.310;8.134;2022-09-09T05:59:29;15.90;99.90
3300;DHT22;1662;49.310;8.134;2022-09-09T06:01:54;15.90;99.90
3300;DHT22;1662;49.310;8.134;2022-09-09T06:04:20;15.90;99.90
3300;DHT22;1662;49.310;8.134;2022-09-09T06:06:47;15.90;99.90
3300;DHT22;1662;49.310;8.134;2022-09-09T06:09:14;15.90;99.90
3300;DHT22;1662;49.310;8.134;2022-09-09T06:11:40;15.90;99.90
3300;DHT22;1662;49.310;8.134;2022-09-09T06:14:07;15.90;99.90
3300;DHT22;1662;49.310;8.134;2022-09-09T06:16:33;15.90;99.90
3300;DHT22;1662;49.310;8.134;2022-09-09T06:18:59;16.00;99.90
3300;DHT22;1662;49.310;8.134;2022-09-09T06:21:30;16.00;99.90
3300;DHT22;1662;49.310;8.134;2022-09-09T06:23:59;16.10;99.90
3300;DHT22;1662;49.310;8.134;2022-09-09T06:26:27;16.10;99.90
3300;DHT22;1662;49.310;8.134;2022-09-09T06:28:54;16.10;99.90
3300;DHT22;1662;49.310;8.134;2022-09-09T06:31:21;16.20;99.90
3300;DHT22;1662;49.310;8.134;2022-09-09T06:33:48;16.20;99.90
3300;DHT22;1662;49.310;8.134;2022-09-09T06:36:20;16.30;99.90
3300;DHT22;1662;49.310;8.134;2022-09-09T06:38:47;16.30;99.90
3300;DHT22;1662;49.310;8.134;2022-09-09T06:41:14;16.30;99.90
3300;DHT22;1662;49.310;8.134;2022-09-09T06:43:40;16.30;99.90
3300;DHT22;1662;49.310;8.134;2022-09-09T06:46:09;16.40;99.90
3300;DHT22;1662;49.310;8.134;2022-09-09T06:48:35;16.50;99.90
3300;DHT22;1662;49.310;8.134;2022-09-09T06:51:08;16.60;99.90
3300;DHT22;1662;49.310;8.134;2022-09-09T06:53:35;16.70;99.90
3300;DHT22;1662;49.310;8.134;2022-09-09T06:58:40;16.90;99.90
3300;DHT22;1662;49.310;8.134;2022-09-09T07:01:14;17.00;99.90
3300;DHT22;1662;49.310;8.134;2022-09-09T07:03:40;17.00;99.90
3300;DHT22;1662;49.310;8.134;2022-09-09T07:06:08;17.00;99.90
3300;DHT22;1662;49.310;8.134;2022-09-09T07:08:34;17.10;99.90
3300;DHT22;1662;49.310;8.134;2022-09-09T07:11:04;17.10;99.90
3300;DHT22;1662;49.310;8.134;2022-09-09T07:13:31;17.10;99.90
3300;DHT22;1662;49.310;8.134;2022-09-09T07:16:08;17.20;99.90
3300;DHT22;1662;49.310;8.134;2022-09-09T07:18:34;17.10;99.90
3300;DHT22;1662;49.310;8.134;2022-09-09T07:21:00;17.10;99.90
3300;DHT22;1662;49.310;8.134;2022-09-09T07:23:27;17.10;99.90
3300;DHT22;1662;49.310;8.134;2022-09-09T07:25:53;17.10;99.90
3300;DHT22;1662;49.310;8.134;2022-09-09T07:28:20;17.00;99.90
3300;DHT22;1662;49.310;8.134;2022-09-09T07:30:55;17.00;99.90
3300;DHT22;1662;49.310;8.134;2022-09-09T07:33:21;17.00;99.90
3300;DHT22;1662;49.310;8.134;2022-09-09T07:35:47;17.00;99.90
3300;DHT22;1662;49.310;8.134;2022-09-09T07:38:13;17.00;99.90
3300;DHT22;1662;49.310;8.134;2022-09-09T07:40:40;17.00;99.90
3300;DHT22;1662;49.310;8.134;2022-09-09T07:43:06;17.00;99.90
3300;DHT22;1662;49.310;8.134;2022-09-09T07:45:34;17.00;99.90
3300;DHT22;1662;49.310;8.134;2022-09-09T07:48:00;17.10;99.90
3300;DHT22;1662;49.310;8.134;2022-09-09T07:50:26;17.10;99.90
3300;DHT22;1662;49.310;8.134;2022-09-09T07:52:52;17.10;99.90
3300;DHT22;1662;49.310;8.134;2022-09-09T07:55:19;17.10;99.90
3300;DHT22;1662;49.310;8.134;2022-09-09T07:57:45;17.10;99.90
3300;DHT22;1662;49.310;8.134;2022-09-09T08:00:11;17.10;99.90
3300;DHT22;1662;49.310;8.134;2022-09-09T08:02:37;17.10;99.90
3300;DHT22;1662;49.310;8.134;2022-09-09T08:05:03;17.10;99.90
3300;DHT22;1662;49.310;8.134;2022-09-09T08:07:28;17.10;99.90
3300;DHT22;1662;49.310;8.134;2022-09-09T08:09:57;17.20;99.90
3300;DHT22;1662;49.310;8.134;2022-09-09T08:12:23;17.20;99.90
3300;DHT22;1662;49.310;8.134;2022-09-09T08:14:48;17.20;99.90
3300;DHT22;1662;49.310;8.134;2022-09-09T08:17:14;17.30;99.90
3300;DHT22;1662;49.310;8.134;2022-09-09T08:19:40;17.30;99.90
3300;DHT22;1662;49.310;8.134;2022-09-09T08:22:05;17.40;99.90
3300;DHT22;1662;49.310;8.134;2022-09-09T08:24:31;17.40;99.90
3300;DHT22;1662;49.310;8.134;2022-09-09T08:26:57;17.50;99.90
3300;DHT22;1662;49.310;8.134;2022-09-09T08:29:25;17.50;99.90
3300;DHT22;1662;49.310;8.134;2022-09-09T08:31:56;17.60;99.90
3300;DHT22;1662;49.310;8.134;2022-09-09T08:34:24;17.60;99.90
3300;DHT22;1662;49.310;8.134;2022-09-09T08:36:52;17.60;99.90
3300;DHT22;1662;49.310;8.134;2022-09-09T08:39:19;17.70;99.90
3300;DHT22;1662;49.310;8.134;2022-09-09T08:55:46;18.70;99.90
3300;DHT22;1662;49.310;8.134;2022-09-09T08:58:17;18.80;99.90
3300;DHT22;1662;49.310;8.134;2022-09-09T09:11:15;18.60;99.90
3300;DHT22;1662;49.310;8.134;2022-09-09T09:13:50;18.50;99.90
3300;DHT22;1662;49.310;8.134;2022-09-09T09:16:24;18.40;99.90
3300;DHT22;1662;49.310;8.134;2022-09-09T09:18:52;18.40;99.90
3300;DHT22;1662;49.310;8.134;2022-09-09T09:23:59;18.30;99.90
3300;DHT22;1662;49.310;8.134;2022-09-09T09:26:34;18.20;99.90
3300;DHT22;1662;49.310;8.134;2022-09-09T09:29:09;18.20;99.90
3300;DHT22;1662;49.310;8.134;2022-09-09T09:31:36;18.20;99.90
3300;DHT22;1662;49.310;8.134;2022-09-09T09:34:02;18.30;99.90
3300;DHT22;1662;49.310;8.134;2022-09-09T09:36:46;18.50;99.90
3300;DHT22;1662;49.310;8.134;2022-09-09T09:39:32;18.50;99.90
3300;DHT22;1662;49.310;8.134;2022-09-09T09:42:14;18.60;99.90
3300;DHT22;1662;49.310;8.134;2022-09-09T09:44:41;18.80;99.90
3300;DHT22;1662;49.310;8.134;2022-09-09T09:50:00;18.70;99.90
3300;DHT22;1662;49.310;8.134;2022-09-09T09:52:31;18.80;99.90
3300;DHT22;1662;49.310;8.134;2022-09-09T09:54:58;18.80;99.90
3300;DHT22;1662;49.310;8.134;2022-09-09T09:57:29;19.00;99.90
3300;DHT22;1662;49.310;8.134;2022-09-09T10:02:46;19.40;99.90
3300;DHT22;1662;49.310;8.134;2022-09-09T10:07:40;19.70;99.90
3300;DHT22;1662;49.310;8.134;2022-09-09T10:10:10;19.80;99.90
3300;DHT22;1662;49.310;8.134;2022-09-09T10:13:11;19.90;99.90
3300;DHT22;1662;49.310;8.134;2022-09-09T10:21:48;20.10;99.90
3300;DHT22;1662;49.310;8.134;2022-09-09T10:24:40;20.20;99.90
3300;DHT22;1662;49.310;8.134;2022-09-09T10:31:12;20.30;99.90
3300;DHT22;1662;49.310;8.134;2022-09-09T10:33:42;20.50;99.90
3300;DHT22;1662;49.310;8.134;2022-09-09T10:36:24;20.80;99.90
3300;DHT22;1662;49.310;8.134;2022-09-09T10:56:10;21.10;99.90
3300;DHT22;1662;49.310;8.134;2022-09-09T11:01:27;21.20;99.90
3300;DHT22;1662;49.310;8.134;2022-09-09T11:04:00;21.40;99.90
3300;DHT22;1662;49.310;8.134;2022-09-09T11:06:34;21.30;99.90
3300;DHT22;1662;49.310;8.134;2022-09-09T11:09:02;21.20;99.90
3300;DHT22;1662;49.310;8.134;2022-09-09T11:11:48;21.10;99.90
3300;DHT22;1662;49.310;8.134;2022-09-09T11:14:19;21.00;99.90
3300;DHT22;1662;49.310;8.134;2022-09-09T11:22:36;21.00;99.90
3300;DHT22;1662;49.310;8.134;2022-09-09T11:25:20;21.20;99.90
3300;DHT22;1662;49.310;8.134;2022-09-09T11:38:47;22.10;99.90
3300;DHT22;1662;49.310;8.134;2022-09-09T11:41:15;22.30;99.90
3300;DHT22;1662;49.310;8.134;2022-09-09T11:43:52;22.30;99.90
3300;DHT22;1662;49.310;8.134;2022-09-09T11:46:21;22.40;99.90
3300;DHT22;1662;49.310;8.134;2022-09-09T11:49:01;22.40;99.90
3300;DHT22;1662;49.310;8.134;2022-09-09T11:51:29;22.40;99.90
3300;DHT22;1662;49.310;8.134;2022-09-09T11:59:04;22.90;99.90
3300;DHT22;1662;49.310;8.134;2022-09-09T12:01:38;23.10;99.90
3300;DHT22;1662;49.310;8.134;2022-09-09T12:09:56;23.60;99.90
3300;DHT22;1662;49.310;8.134;2022-09-09T12:12:27;23.80;99.90
3300;DHT22;1662;49.310;8.134;2022-09-09T12:17:30;23.60;99.90
3300;DHT22;1662;49.310;8.134;2022-09-09T12:20:37;23.50;99.90
3300;DHT22;1662;49.310;8.134;2022-09-09T12:26:07;23.50;99.90
3300;DHT22;1662;49.310;8.134;2022-09-09T12:31:16;23.20;99.90
3300;DHT22;1662;49.310;8.134;2022-09-09T12:33:45;23.00;99.90
3300;DHT22;1662;49.310;8.134;2022-09-09T12:36:21;23.00;99.90
3300;DHT22;1662;49.310;8.134;2022-09-09T12:38:48;22.90;99.90
3300;DHT22;1662;49.310;8.134;2022-09-09T12:41:26;22.60;99.90
3300;DHT22;1662;49.310;8.134;2022-09-09T12:44:04;22.50;99.90
3300;DHT22;1662;49.310;8.134;2022-09-09T12:46:38;22.50;99.90
3300;DHT22;1662;49.310;8.134;2022-09-09T12:49:18;22.70;99.90
3300;DHT22;1662;49.310;8.134;2022-09-09T12:51:49;22.90;99.90
3300;DHT22;1662;49.310;8.134;2022-09-09T12:54:15;23.00;99.90
3300;DHT22;1662;49.310;8.134;2022-09-09T12:56:46;23.20;99.90
3300;DHT22;1662;49.310;8.134;2022-09-09T12:59:36;23.30;99.90
3300;DHT22;1662;49.310;8.134;2022-09-09T13:02:01;23.20;99.90
3300;DHT22;1662;49.310;8.134;2022-09-09T13:04:27;23.30;99.90
3300;DHT22;1662;49.310;8.134;2022-09-09T13:06:53;23.30;99.90
3300;DHT22;1662;49.310;8.134;2022-09-09T13:09:19;23.50;99.90
3300;DHT22;1662;49.310;8.134;2022-09-09T13:11:54;23.90;99.90
3300;DHT22;1662;49.310;8.134;2022-09-09T13:14:43;23.90;99.90
3300;DHT22;1662;49.310;8.134;2022-09-09T13:17:24;24.00;99.90
3300;DHT22;1662;49.310;8.134;2022-09-09T13:19:51;24.40;99.90
3300;DHT22;1662;49.310;8.134;2022-09-09T13:25:20;24.70;99.90
3300;DHT22;1662;49.310;8.134;2022-09-09T13:27:59;24.60;99.90
3300;DHT22;1662;49.310;8.134;2022-09-09T13:30:31;24.80;99.90
3300;DHT22;1662;49.310;8.134;2022-09-09T13:35:57;24.90;99.90
3300;DHT22;1662;49.310;8.134;2022-09-09T13:38:24;24.50;99.90
3300;DHT22;1662;49.310;8.134;2022-09-09T13:41:00;24.30;99.90
3300;DHT22;1662;49.310;8.134;2022-09-09T13:43:50;24.10;99.90
3300;DHT22;1662;49.310;8.134;2022-09-09T13:46:59;24.00;99.90
3300;DHT22;1662;49.310;8.134;2022-09-09T13:51:47;23.70;99.90
3300;DHT22;1662;49.310;8.134;2022-09-09T13:54:15;23.60;99.90
3300;DHT22;1662;49.310;8.134;2022-09-09T13:56:42;23.50;99.90
3300;DHT22;1662;49.310;8.134;2022-09-09T13:59:15;23.40;99.90
3300;DHT22;1662;49.310;8.134;2022-09-09T14:01:41;23.30;99.90
3300;DHT22;1662;49.310;8.134;2022-09-09T14:04:08;23.20;99.90
3300;DHT22;1662;49.310;8.134;2022-09-09T14:06:39;23.10;99.90
3300;DHT22;1662;49.310;8.134;2022-09-09T14:09:07;22.90;99.90
3300;DHT22;1662;49.310;8.134;2022-09-09T14:11:33;22.80;99.90
3300;DHT22;1662;49.310;8.134;2022-09-09T14:14:01;22.70;99.90
3300;DHT22;1662;49.310;8.134;2022-09-09T14:16:28;22.70;99.90
3300;DHT22;1662;49.310;8.134;2022-09-09T14:18:54;22.50;99.90
3300;DHT22;1662;49.310;8.134;2022-09-09T14:21:24;22.30;99.90
3300;DHT22;1662;49.310;8.134;2022-09-09T14:23:50;22.20;99.90
3300;DHT22;1662;49.310;8.134;2022-09-09T14:26:18;21.90;99.90
3300;DHT22;1662;49.310;8.134;2022-09-09T14:28:45;21.80;99.90
3300;DHT22;1662;49.310;8.134;2022-09-09T14:31:11;21.60;99.90
3300;DHT22;1662;49.310;8.134;2022-09-09T14:33:39;21.50;99.90
3300;DHT22;1662;49.310;8.134;2022-09-09T14:36:05;21.20;99.90
3300;DHT22;1662;49.310;8.134;2022-09-09T14:38:33;20.90;99.90
3300;DHT22;1662;49.310;8.134;2022-09-09T14:41:02;20.60;99.90
3300;DHT22;1662;49.310;8.134;2022-09-09T14:43:29;20.50;99.90
3300;DHT22;1662;49.310;8.134;2022-09-09T14:45:57;20.10;99.90
3300;DHT22;1662;49.310;8.134;2022-09-09T14:48:23;19.90;99.90
3300;DHT22;1662;49.310;8.134;2022-09-09T14:50:48;19.90;99.90
3300;DHT22;1662;49.310;8.134;2022-09-09T14:53:16;19.80;99.90
3300;DHT22;1662;49.310;8.134;2022-09-09T14:55:42;19.50;99.90
3300;DHT22;1662;49.310;8.134;2022-09-09T14:58:07;19.20;99.90
3300;DHT22;1662;49.310;8.134;2022-09-09T15:00:33;19.10;99.90
3300;DHT22;1662;49.310;8.134;2022-09-09T15:02:59;19.00;99.90
3300;DHT22;1662;49.310;8.134;2022-09-09T15:05:24;18.90;99.90
3300;DHT22;1662;49.310;8.134;2022-09-09T15:07:50;18.90;99.90
3300;DHT22;1662;49.310;8.134;2022-09-09T15:10:16;18.90;99.90
3300;DHT22;1662;49.310;8.134;2022-09-09T15:12:45;19.00;99.90
3300;DHT22;1662;49.310;8.134;2022-09-09T15:15:11;19.20;99.90
3300;DHT22;1662;49.310;8.134;2022-09-09T15:17:37;19.60;99.90
3300;DHT22;1662;49.310;8.134;2022-09-09T15:20:04;20.00;99.90
3300;DHT22;1662;49.310;8.134;2022-09-09T15:22:31;20.60;99.90
3300;DHT22;1662;49.310;8.134;2022-09-09T15:24:59;21.10;99.90
3300;DHT22;1662;49.310;8.134;2022-09-09T15:27:25;21.50;99.90
3300;DHT22;1662;49.310;8.134;2022-09-09T15:29:50;21.90;99.90
3300;DHT22;1662;49.310;8.134;2022-09-09T15:32:19;22.20;99.90
3300;DHT22;1662;49.310;8.134;2022-09-09T15:34:44;22.40;99.90
3300;DHT22;1662;49.310;8.134;2022-09-09T15:37:10;22.70;99.90
3300;DHT22;1662;49.310;8.134;2022-09-09T15:39:39;22.90;99.90
3300;DHT22;1662;49.310;8.134;2022-09-09T15:42:05;22.90;99.90
3300;DHT22;1662;49.310;8.134;2022-09-09T15:44:39;22.80;99.90
3300;DHT22;1662;49.310;8.134;2022-09-09T15:47:05;22.60;99.90
3300;DHT22;1662;49.310;8.134;2022-09-09T15:49:30;22.60;99.90
3300;DHT22;1662;49.310;8.134;2022-09-09T15:51:58;22.60;99.90
3300;DHT22;1662;49.310;8.134;2022-09-09T15:54:32;22.60;99.90
3300;DHT22;1662;49.310;8.134;2022-09-09T15:57:02;22.80;99.90
3300;DHT22;1662;49.310;8.134;2022-09-09T15:59:29;22.90;99.90
3300;DHT22;1662;49.310;8.134;2022-09-09T16:01:56;22.80;99.90
3300;DHT22;1662;49.310;8.134;2022-09-09T16:04:23;22.70;99.90
3300;DHT22;1662;49.310;8.134;2022-09-09T16:06:53;22.70;99.90
3300;DHT22;1662;49.310;8.134;2022-09-09T16:09:20;22.40;99.90
3300;DHT22;1662;49.310;8.134;2022-09-09T16:11:46;22.00;99.90
3300;DHT22;1662;49.310;8.134;2022-09-09T16:14:15;21.80;99.90
3300;DHT22;1662;49.310;8.134;2022-09-09T16:16:41;21.60;99.90
3300;DHT22;1662;49.310;8.134;2022-09-09T16:19:09;21.40;99.90
3300;DHT22;1662;49.310;8.134;2022-09-09T16:21:38;21.30;99.90
3300;DHT22;1662;49.310;8.134;2022-09-09T16:24:06;21.40;99.90
3300;DHT22;1662;49.310;8.134;2022-09-09T16:26:34;21.40;99.90
3300;DHT22;1662;49.310;8.134;2022-09-09T16:29:01;21.30;99.90
3300;DHT22;1662;49.310;8.134;2022-09-09T16:31:29;21.20;99.90
3300;DHT22;1662;49.310;8.134;2022-09-09T16:33:56;21.10;99.90
3300;DHT22;1662;49.310;8.134;2022-09-09T16:36:24;20.90;99.90
3300;DHT22;1662;49.310;8.134;2022-09-09T16:38:56;20.80;99.90
3300;DHT22;1662;49.310;8.134;2022-09-09T16:41:26;20.80;99.90
3300;DHT22;1662;49.310;8.134;2022-09-09T16:44:03;20.70;99.90
3300;DHT22;1662;49.310;8.134;2022-09-09T16:46:31;20.70;99.90
3300;DHT22;1662;49.310;8.134;2022-09-09T16:48:58;20.70;99.90
3300;DHT22;1662;49.310;8.134;2022-09-09T16:51:29;20.60;99.90
3300;DHT22;1662;49.310;8.134;2022-09-09T16:53:59;20.50;99.90
3300;DHT22;1662;49.310;8.134;2022-09-09T16:56:30;20.40;99.90
3300;DHT22;1662;49.310;8.134;2022-09-09T16:58:58;20.40;99.90
3300;DHT22;1662;49.310;8.134;2022-09-09T17:01:32;20.40;99.90
3300;DHT22;1662;49.310;8.134;2022-09-09T17:04:03;20.30;99.90
3300;DHT22;1662;49.310;8.134;2022-09-09T17:06:30;20.30;99.90
3300;DHT22;1662;49.310;8.134;2022-09-09T17:08:59;20.30;99.90
3300;DHT22;1662;49.310;8.134;2022-09-09T17:11:27;20.20;99.90
3300;DHT22;1662;49.310;8.134;2022-09-09T17:13:54;20.20;99.90
3300;DHT22;1662;49.310;8.134;2022-09-09T17:16:22;20.10;99.90
3300;DHT22;1662;49.310;8.134;2022-09-09T17:18:54;20.00;99.90
3300;DHT22;1662;49.310;8.134;2022-09-09T17:21:23;20.00;99.90
3300;DHT22;1662;49.310;8.134;2022-09-09T17:23:49;19.90;99.90
3300;DHT22;1662;49.310;8.134;2022-09-09T17:26:19;19.80;99.90
3300;DHT22;1662;49.310;8.134;2022-09-09T17:28:46;19.80;99.90
3300;DHT22;1662;49.310;8.134;2022-09-09T17:31:15;19.80;99.90
3300;DHT22;1662;49.310;8.134;2022-09-09T17:33:43;19.70;99.90
3300;DHT22;1662;49.310;8.134;2022-09-09T17:36:17;19.70;99.90
3300;DHT22;1662;49.310;8.134;2022-09-09T17:38:44;19.60;99.90
3300;DHT22;1662;49.310;8.134;2022-09-09T17:41:11;19.60;99.90
3300;DHT22;1662;49.310;8.134;2022-09-09T17:43:40;19.60;99.90
3300;DHT22;1662;49.310;8.134;2022-09-09T17:46:19;19.60;99.90
3300;DHT22;1662;49.310;8.134;2022-09-09T17:48:46;19.60;99.90
3300;DHT22;1662;49.310;8.134;2022-09-09T17:51:16;19.50;99.90
3300;DHT22;1662;49.310;8.134;2022-09-09T17:53:46;19.30;99.90
3300;DHT22;1662;49.310;8.134;2022-09-09T17:56:14;19.30;99.90
3300;DHT22;1662;49.310;8.134;2022-09-09T17:58:40;19.10;99.90
3300;DHT22;1662;49.310;8.134;2022-09-09T18:01:30;18.80;99.90
3300;DHT22;1662;49.310;8.134;2022-09-09T18:03:59;18.70;99.90
3300;DHT22;1662;49.310;8.134;2022-09-09T18:06:31;18.60;99.90
3300;DHT22;1662;49.310;8.134;2022-09-09T18:09:01;18.30;99.90
3300;DHT22;1662;49.310;8.134;2022-09-09T18:11:31;18.20;99.90
3300;DHT22;1662;49.310;8.134;2022-09-09T18:14:00;18.10;99.90
3300;DHT22;1662;49.310;8.134;2022-09-09T18:16:28;18.00;99.90
3300;DHT22;1662;49.310;8.134;2022-09-09T18:18:55;17.80;99.90
3300;DHT22;1662;49.310;8.134;2022-09-09T18:21:23;17.70;99.90
3300;DHT22;1662;49.310;8.134;2022-09-09T18:23:50;17.70;99.90
3300;DHT22;1662;49.310;8.134;2022-09-09T18:26:22;17.60;99.90
3300;DHT22;1662;49.310;8.134;2022-09-09T18:29:02;17.60;99.90
3300;DHT22;1662;49.310;8.134;2022-09-09T18:31:29;17.50;99.90
3300;DHT22;1662;49.310;8.134;2022-09-09T18:33:57;17.40;99.90
3300;DHT22;1662;49.310;8.134;2022-09-09T18:36:26;17.40;99.90
3300;DHT22;1662;49.310;8.134;2022-09-09T18:38:52;17.30;99.90
3300;DHT22;1662;49.310;8.134;2022-09-09T18:41:26;17.30;99.90
3300;DHT22;1662;49.310;8.134;2022-09-09T18:43:54;17.40;99.90
3300;DHT22;1662;49.310;8.134;2022-09-09T18:46:22;17.40;99.90
3300;DHT22;1662;49.310;8.134;2022-09-09T18:48:49;17.40;99.90
3300;DHT22;1662;49.310;8.134;2022-09-09T18:51:17;17.40;99.90
3300;DHT22;1662;49.310;8.134;2022-09-09T18:53:49;17.30;99.90